Time;durP1;ratioP1;P1;durP2;ratioP2;P2;SDS_P1;SDS_P2;PMS_P1;PMS_P2;Temp;Humidity;BMP_temperature;BMP_pressure;BME280_temperature;BME280_humidity;BME280_pressure;Samples;Min_cycle;Max_cycle;Signal;HPM_P1;HPM_P2
2022/07/30 00:00:47;;;;;;;;;;;15.50;99.90;;;;;;5052725;28;19920;-74
2022/07/30 00:03:12;;;;;;;;;;;15.50;99.90;;;;;;5051724;28;19909;-74
2022/07/30 00:05:38;;;;;;;;;;;15.50;99.90;;;;;;5053144;28;19939;-74
2022/07/30 00:08:03;;;;;;;;;;;15.30;99.90;;;;;;5052813;28;19917;-75
2022/07/30 00:10:29;;;;;;;;;;;15.30;99.90;;;;;;5053108;28;19909;-74
2022/07/30 00:12:56;;;;;;;;;;;15.30;99.90;;;;;;5052184;28;19920;-74
2022/07/30 00:15:21;;;;;;;;;;;15.20;99.90;;;;;;5051084;28;20370;-73
2022/07/30 00:17:47;;;;;;;;;;;15.20;99.90;;;;;;5052058;28;19908;-73
2022/07/30 00:20:13;;;;;;;;;;;15.20;99.90;;;;;;5052989;28;20273;-74
2022/07/30 00:22:38;;;;;;;;;;;15.20;99.90;;;;;;5052177;28;19909;-73
2022/07/30 00:25:04;;;;;;;;;;;15.30;99.90;;;;;;5051877;28;19909;-73
2022/07/30 00:27:33;;;;;;;;;;;15.40;99.90;;;;;;5052187;28;19916;-73
2022/07/30 00:29:59;;;;;;;;;;;15.50;99.90;;;;;;5050454;28;19995;-73
2022/07/30 00:32:24;;;;;;;;;;;15.60;99.90;;;;;;5051490;28;19917;-74
2022/07/30 00:34:50;;;;;;;;;;;15.70;99.90;;;;;;5051878;28;19909;-73
2022/07/30 00:37:15;;;;;;;;;;;15.80;99.90;;;;;;5052216;28;20313;-74
2022/07/30 00:39:41;;;;;;;;;;;15.90;99.90;;;;;;5052144;28;19916;-74
2022/07/30 00:42:06;;;;;;;;;;;15.90;99.90;;;;;;5051698;28;19912;-74
2022/07/30 00:44:32;;;;;;;;;;;15.90;99.90;;;;;;5051580;28;20370;-74
2022/07/30 00:46:57;;;;;;;;;;;15.90;99.90;;;;;;5050257;28;19909;-74
2022/07/30 00:49:23;;;;;;;;;;;16.00;99.90;;;;;;5051430;28;19909;-74
2022/07/30 00:51:49;;;;;;;;;;;15.90;99.90;;;;;;5051582;28;19912;-74
2022/07/30 00:54:15;;;;;;;;;;;15.70;99.90;;;;;;5051422;28;19909;-74
2022/07/30 00:56:41;;;;;;;;;;;15.60;99.90;;;;;;5049265;28;20062;-74
2022/07/30 00:59:07;;;;;;;;;;;15.60;99.90;;;;;;5051134;28;19912;-74
2022/07/30 01:01:33;;;;;;;;;;;15.60;99.90;;;;;;5051498;28;19974;-74
2022/07/30 01:03:58;;;;;;;;;;;15.40;99.90;;;;;;5044277;28;19912;-74
2022/07/30 01:06:24;;;;;;;;;;;15.30;99.90;;;;;;5051836;28;19954;-74
2022/07/30 01:08:49;;;;;;;;;;;15.30;99.90;;;;;;5045439;28;19967;-74
2022/07/30 01:11:15;;;;;;;;;;;15.20;99.90;;;;;;5050250;28;19919;-74
2022/07/30 01:13:41;;;;;;;;;;;15.50;99.90;;;;;;5050890;28;19909;-74
2022/07/30 01:16:07;;;;;;;;;;;15.60;99.90;;;;;;5051723;28;19915;-74
2022/07/30 01:21:19;;;;;;;;;;;15.80;99.90;;;;;;5045614;28;19923;-74
2022/07/30 01:23:46;;;;;;;;;;;15.70;99.90;;;;;;5050850;28;19908;-75
2022/07/30 01:26:14;;;;;;;;;;;15.80;99.90;;;;;;5051420;28;19909;-74
2022/07/30 01:28:45;;;;;;;;;;;15.50;99.90;;;;;;5051306;28;19919;-75
2022/07/30 01:31:11;;;;;;;;;;;15.20;99.90;;;;;;5051314;28;19975;-74
2022/07/30 01:33:39;;;;;;;;;;;15.10;99.90;;;;;;5047431;28;20384;-74
2022/07/30 01:36:05;;;;;;;;;;;15.00;99.90;;;;;;5051136;28;20035;-74
2022/07/30 01:38:31;;;;;;;;;;;15.00;99.90;;;;;;5050653;28;19909;-74
2022/07/30 01:40:57;;;;;;;;;;;15.00;99.90;;;;;;5051553;28;20309;-74
2022/07/30 01:43:23;;;;;;;;;;;14.90;99.90;;;;;;5049742;28;19908;-73
2022/07/30 01:45:50;;;;;;;;;;;14.80;99.90;;;;;;5051286;28;19909;-74
2022/07/30 01:48:17;;;;;;;;;;;14.80;99.90;;;;;;5051247;28;19974;-74
2022/07/30 01:50:45;;;;;;;;;;;14.80;99.90;;;;;;5051266;28;19909;-74
2022/07/30 01:53:14;;;;;;;;;;;14.70;99.90;;;;;;5049783;28;20306;-73
2022/07/30 01:55:41;;;;;;;;;;;14.70;99.90;;;;;;5050963;28;19909;-73
2022/07/30 01:58:07;;;;;;;;;;;14.60;99.90;;;;;;5051115;28;20344;-74
2022/07/30 02:00:35;;;;;;;;;;;14.60;99.90;;;;;;5051017;28;19932;-73
2022/07/30 02:03:01;;;;;;;;;;;14.50;99.90;;;;;;5046441;28;20008;-73
2022/07/30 02:05:30;;;;;;;;;;;14.40;99.90;;;;;;5050086;28;19996;-73
2022/07/30 02:08:09;;;;;;;;;;;14.30;99.90;;;;;;5052718;28;19948;-74
2022/07/30 02:10:39;;;;;;;;;;;14.20;99.90;;;;;;5055131;28;19959;-74
2022/07/30 02:13:06;;;;;;;;;;;14.10;99.90;;;;;;5053955;28;19959;-74
2022/07/30 02:15:42;;;;;;;;;;;14.10;99.90;;;;;;5055054;28;19913;-74
2022/07/30 02:18:13;;;;;;;;;;;14.00;99.90;;;;;;5055081;28;20003;-74
2022/07/30 02:20:42;;;;;;;;;;;13.90;99.90;;;;;;5054913;28;20333;-74
2022/07/30 02:23:10;;;;;;;;;;;13.90;99.90;;;;;;5053515;28;20270;-74
2022/07/30 02:25:37;;;;;;;;;;;13.80;99.90;;;;;;5054761;28;19916;-74
2022/07/30 02:28:06;;;;;;;;;;;13.70;99.90;;;;;;5054571;28;19909;-74
2022/07/30 02:30:34;;;;;;;;;;;13.70;99.90;;;;;;5054767;28;19908;-74
2022/07/30 02:33:09;;;;;;;;;;;13.70;99.90;;;;;;5049386;28;19917;-74
2022/07/30 02:35:35;;;;;;;;;;;13.60;99.90;;;;;;5059123;28;19970;-73
2022/07/30 02:38:01;;;;;;;;;;;13.50;99.90;;;;;;5054176;28;19962;-74
2022/07/30 02:40:27;;;;;;;;;;;13.40;99.90;;;;;;5054432;28;19909;-74
2022/07/30 02:42:53;;;;;;;;;;;13.40;99.90;;;;;;5054005;28;19995;-74
2022/07/30 02:45:21;;;;;;;;;;;13.30;99.90;;;;;;5053855;28;19970;-74
2022/07/30 02:47:57;;;;;;;;;;;13.20;99.90;;;;;;5054357;28;19999;-74
2022/07/30 02:50:23;;;;;;;;;;;13.10;99.90;;;;;;5054407;28;20282;-74
2022/07/30 02:52:50;;;;;;;;;;;13.20;99.90;;;;;;5053425;28;20285;-74
2022/07/30 02:55:16;;;;;;;;;;;13.20;99.90;;;;;;5053508;28;19909;-74
2022/07/30 02:57:43;;;;;;;;;;;13.40;99.90;;;;;;5053422;28;19913;-74
2022/07/30 03:00:10;;;;;;;;;;;13.60;99.90;;;;;;5052960;28;19909;-74
2022/07/30 03:02:36;;;;;;;;;;;13.70;99.90;;;;;;5052089;28;19913;-74
2022/07/30 03:05:03;;;;;;;;;;;13.70;99.90;;;;;;5052067;28;20369;-74
2022/07/30 03:07:29;;;;;;;;;;;13.80;99.90;;;;;;5052097;28;20404;-74
2022/07/30 03:09:55;;;;;;;;;;;13.70;99.90;;;;;;5053947;28;19913;-74
2022/07/30 03:12:21;;;;;;;;;;;13.80;99.90;;;;;;5053290;28;20288;-74
2022/07/30 03:14:46;;;;;;;;;;;13.70;99.90;;;;;;5053016;28;20334;-74
2022/07/30 03:17:13;;;;;;;;;;;13.70;99.90;;;;;;5053814;28;19909;-74
2022/07/30 03:19:39;;;;;;;;;;;13.60;99.90;;;;;;5053604;28;20004;-74
2022/07/30 03:22:06;;;;;;;;;;;13.80;99.90;;;;;;5053126;28;19909;-74
2022/07/30 03:24:31;;;;;;;;;;;13.80;99.90;;;;;;5053030;28;19963;-74
2022/07/30 03:26:59;;;;;;;;;;;13.80;99.90;;;;;;5054186;28;19909;-74
2022/07/30 03:29:25;;;;;;;;;;;13.60;99.90;;;;;;5053644;28;19908;-74
2022/07/30 03:31:52;;;;;;;;;;;13.60;99.90;;;;;;5051790;28;20389;-74
2022/07/30 03:34:18;;;;;;;;;;;13.60;99.90;;;;;;5049987;28;19918;-74
2022/07/30 03:36:43;;;;;;;;;;;13.50;99.90;;;;;;5050730;28;19909;-74
2022/07/30 03:39:09;;;;;;;;;;;13.40;99.90;;;;;;5053124;28;19916;-74
2022/07/30 03:41:35;;;;;;;;;;;13.40;99.90;;;;;;5052961;28;19996;-74
2022/07/30 03:44:00;;;;;;;;;;;13.40;99.90;;;;;;5051474;28;20365;-74
2022/07/30 03:46:26;;;;;;;;;;;13.40;99.90;;;;;;5053496;28;20394;-74
2022/07/30 03:48:53;;;;;;;;;;;13.40;99.90;;;;;;5052094;28;20340;-74
2022/07/30 03:51:18;;;;;;;;;;;13.50;99.90;;;;;;5050071;28;19917;-74
2022/07/30 03:53:44;;;;;;;;;;;13.50;99.90;;;;;;5052003;28;19909;-74
2022/07/30 03:56:11;;;;;;;;;;;13.40;99.90;;;;;;5053291;28;19917;-74
2022/07/30 03:58:37;;;;;;;;;;;13.40;99.90;;;;;;5052939;28;19995;-74
2022/07/30 04:01:03;;;;;;;;;;;13.30;99.90;;;;;;5053031;28;19913;-74
2022/07/30 04:03:30;;;;;;;;;;;13.40;99.90;;;;;;5052750;28;19909;-74
2022/07/30 04:05:55;;;;;;;;;;;13.40;99.90;;;;;;5054686;28;19962;-74
2022/07/30 04:08:21;;;;;;;;;;;13.40;99.90;;;;;;5052671;28;20339;-74
2022/07/30 04:10:47;;;;;;;;;;;13.40;99.90;;;;;;5052515;28;19943;-74
2022/07/30 04:13:12;;;;;;;;;;;13.40;99.90;;;;;;5051701;28;20293;-74
2022/07/30 04:16:04;;;;;;;;;;;13.30;99.90;;;;;;5045922;28;19916;-74
2022/07/30 04:18:34;;;;;;;;;;;13.30;99.90;;;;;;5050010;28;19920;-74
2022/07/30 04:21:02;;;;;;;;;;;13.30;99.90;;;;;;5052233;28;19909;-74
2022/07/30 04:23:28;;;;;;;;;;;13.30;99.90;;;;;;5048860;28;20390;-73
2022/07/30 04:25:54;;;;;;;;;;;13.40;99.90;;;;;;5052075;28;19917;-74
2022/07/30 04:28:20;;;;;;;;;;;13.40;99.90;;;;;;5052312;28;19999;-74
2022/07/30 04:30:45;;;;;;;;;;;13.40;99.90;;;;;;5051753;28;19963;-74
2022/07/30 04:33:11;;;;;;;;;;;13.40;99.90;;;;;;5050983;28;20286;-73
2022/07/30 04:35:36;;;;;;;;;;;13.50;99.90;;;;;;5052248;28;19915;-74
2022/07/30 04:38:03;;;;;;;;;;;13.50;99.90;;;;;;5051829;28;19919;-73
2022/07/30 04:40:30;;;;;;;;;;;13.60;99.90;;;;;;5049870;28;20385;-74
2022/07/30 04:42:55;;;;;;;;;;;13.70;99.90;;;;;;5047204;28;19966;-74
2022/07/30 04:45:21;;;;;;;;;;;13.70;99.90;;;;;;5051410;28;20373;-74
2022/07/30 04:47:46;;;;;;;;;;;13.80;99.90;;;;;;5045273;28;19909;-74
2022/07/30 04:50:13;;;;;;;;;;;13.90;99.90;;;;;;5054258;28;19909;-74
2022/07/30 04:52:38;;;;;;;;;;;14.00;99.90;;;;;;5051207;28;19913;-74
2022/07/30 04:55:05;;;;;;;;;;;14.00;99.90;;;;;;5050498;28;19920;-74
2022/07/30 04:57:32;;;;;;;;;;;13.90;99.90;;;;;;5051754;28;20366;-74
2022/07/30 04:59:58;;;;;;;;;;;13.80;99.90;;;;;;5051861;28;19909;-74
2022/07/30 05:02:25;;;;;;;;;;;14.00;99.90;;;;;;5051153;28;19920;-74
2022/07/30 05:04:51;;;;;;;;;;;14.10;99.90;;;;;;5050576;28;19913;-74
2022/07/30 05:07:17;;;;;;;;;;;14.30;99.90;;;;;;5051360;28;19916;-74
2022/07/30 05:09:43;;;;;;;;;;;14.30;99.90;;;;;;5051442;28;19920;-74
2022/07/30 05:12:08;;;;;;;;;;;14.30;99.90;;;;;;5050959;28;20293;-74
2022/07/30 05:14:34;;;;;;;;;;;14.40;99.90;;;;;;5050928;28;19909;-74
2022/07/30 05:17:00;;;;;;;;;;;14.50;99.90;;;;;;5051441;28;19982;-74
2022/07/30 05:19:25;;;;;;;;;;;14.60;99.90;;;;;;5052824;28;19908;-74
2022/07/30 05:21:51;;;;;;;;;;;14.70;99.90;;;;;;5050699;28;19908;-74
2022/07/30 05:24:17;;;;;;;;;;;14.80;99.90;;;;;;5050841;28;20286;-74
2022/07/30 05:26:42;;;;;;;;;;;14.90;99.90;;;;;;5051371;28;19912;-74
2022/07/30 05:29:08;;;;;;;;;;;15.00;99.90;;;;;;5051333;28;20381;-74
2022/07/30 05:31:33;;;;;;;;;;;15.10;99.90;;;;;;5050688;28;20377;-74
2022/07/30 05:33:59;;;;;;;;;;;15.20;99.90;;;;;;5048820;28;20288;-74
2022/07/30 05:36:24;;;;;;;;;;;15.30;99.90;;;;;;5051081;28;20496;-74
2022/07/30 05:38:50;;;;;;;;;;;15.30;99.90;;;;;;5051066;28;19912;-74
2022/07/30 05:41:15;;;;;;;;;;;15.40;99.90;;;;;;5050447;28;20394;-74
2022/07/30 05:43:41;;;;;;;;;;;15.70;99.90;;;;;;5049709;28;19909;-74
2022/07/30 05:46:07;;;;;;;;;;;16.00;99.90;;;;;;5051082;28;20008;-74
2022/07/30 05:48:34;;;;;;;;;;;16.00;99.90;;;;;;5046919;28;20304;-74
2022/07/30 05:51:00;;;;;;;;;;;16.00;99.90;;;;;;5053546;28;19912;-74
2022/07/30 05:53:26;;;;;;;;;;;16.20;99.90;;;;;;5047288;28;19963;-74
2022/07/30 05:55:51;;;;;;;;;;;16.30;99.90;;;;;;5051106;28;19909;-74
2022/07/30 05:58:18;;;;;;;;;;;16.40;99.90;;;;;;5051049;28;20362;-74
2022/07/30 06:00:43;;;;;;;;;;;16.60;99.90;;;;;;5051093;28;19913;-74
2022/07/30 06:03:09;;;;;;;;;;;16.60;99.90;;;;;;5049513;28;19987;-74
2022/07/30 06:05:34;;;;;;;;;;;16.60;99.90;;;;;;5051689;28;20419;-74
2022/07/30 06:08:00;;;;;;;;;;;16.70;99.90;;;;;;5051224;28;19927;-75
2022/07/30 06:10:25;;;;;;;;;;;16.90;99.90;;;;;;5043066;28;19913;-75
2022/07/30 06:12:51;;;;;;;;;;;17.10;99.90;;;;;;5051684;28;19916;-74
2022/07/30 06:15:16;;;;;;;;;;;17.10;99.90;;;;;;5051160;28;19909;-73
2022/07/30 06:17:43;;;;;;;;;;;17.30;99.90;;;;;;5051302;28;19916;-74
2022/07/30 06:20:10;;;;;;;;;;;18.30;99.90;;;;;;5050953;28;20427;-74
2022/07/30 06:22:35;;;;;;;;;;;18.60;99.90;;;;;;5051058;28;19919;-74
2022/07/30 06:25:01;;;;;;;;;;;19.00;99.90;;;;;;5050750;28;20281;-74
2022/07/30 06:27:27;;;;;;;;;;;18.40;99.90;;;;;;5051575;28;19916;-74
2022/07/30 06:29:52;;;;;;;;;;;18.00;99.90;;;;;;5050279;28;19908;-74
2022/07/30 06:32:18;;;;;;;;;;;17.90;99.90;;;;;;5050904;28;19919;-74
2022/07/30 06:34:44;;;;;;;;;;;17.80;99.90;;;;;;5049104;28;19916;-74
2022/07/30 06:37:09;;;;;;;;;;;17.90;99.90;;;;;;5051597;28;20389;-74
2022/07/30 06:39:35;;;;;;;;;;;17.90;99.90;;;;;;5051275;28;19916;-74
2022/07/30 06:42:00;;;;;;;;;;;18.00;99.90;;;;;;5050958;28;19913;-75
2022/07/30 06:44:26;;;;;;;;;;;18.10;99.90;;;;;;5050598;28;19913;-73
2022/07/30 06:46:51;;;;;;;;;;;18.40;99.90;;;;;;5051124;28;19999;-74
2022/07/30 06:49:17;;;;;;;;;;;18.40;99.90;;;;;;5050975;28;19915;-74
2022/07/30 06:51:42;;;;;;;;;;;18.40;99.90;;;;;;5049948;28;20074;-73
2022/07/30 06:54:08;;;;;;;;;;;18.40;99.90;;;;;;5052210;28;19909;-74
2022/07/30 06:56:33;;;;;;;;;;;18.70;99.90;;;;;;5054402;28;19909;-73
2022/07/30 06:58:59;;;;;;;;;;;18.80;99.90;;;;;;5054291;28;19916;-74
2022/07/30 07:01:24;;;;;;;;;;;19.10;99.90;;;;;;5054093;28;19909;-73
2022/07/30 07:03:50;;;;;;;;;;;19.80;99.90;;;;;;5053661;28;20069;-73
2022/07/30 07:06:15;;;;;;;;;;;20.10;99.90;;;;;;5054288;28;19909;-73
2022/07/30 07:08:41;;;;;;;;;;;20.20;99.90;;;;;;5054789;28;19920;-73
2022/07/30 07:11:06;;;;;;;;;;;20.10;99.90;;;;;;5053766;28;19952;-73
2022/07/30 07:13:32;;;;;;;;;;;20.10;99.90;;;;;;5051280;28;19909;-73
2022/07/30 07:15:57;;;;;;;;;;;20.40;99.90;;;;;;5052184;28;20381;-73
2022/07/30 07:18:23;;;;;;;;;;;20.50;99.90;;;;;;5056516;28;19913;-73
2022/07/30 07:20:48;;;;;;;;;;;21.40;99.90;;;;;;5052589;28;19913;-73
2022/07/30 07:23:14;;;;;;;;;;;22.20;99.90;;;;;;5053100;28;19909;-74
2022/07/30 07:25:40;;;;;;;;;;;22.90;99.90;;;;;;5053978;28;19909;-74
2022/07/30 07:28:06;;;;;;;;;;;23.40;99.90;;;;;;5053941;28;19909;-74
2022/07/30 07:30:32;;;;;;;;;;;23.30;99.90;;;;;;5053973;28;19909;-74
2022/07/30 07:32:57;;;;;;;;;;;23.40;99.90;;;;;;5053742;28;19967;-74
2022/07/30 07:35:23;;;;;;;;;;;24.00;99.90;;;;;;5052013;28;19953;-74
2022/07/30 07:37:49;;;;;;;;;;;24.40;98.80;;;;;;5053038;28;19909;-74
2022/07/30 07:40:14;;;;;;;;;;;24.60;99.90;;;;;;5054030;28;19958;-74
2022/07/30 07:42:40;;;;;;;;;;;25.00;97.40;;;;;;5053506;28;19919;-75
2022/07/30 07:45:06;;;;;;;;;;;25.20;96.70;;;;;;5053048;28;19909;-74
2022/07/30 07:47:41;;;;;;;;;;;24.60;95.90;;;;;;5053326;28;19909;-75
2022/07/30 07:50:06;;;;;;;;;;;25.10;95.20;;;;;;5054206;28;19916;-76
2022/07/30 07:52:32;;;;;;;;;;;25.80;92.20;;;;;;5046608;28;19912;-74
2022/07/30 07:54:57;;;;;;;;;;;25.00;93.00;;;;;;5052987;28;20456;-74
2022/07/30 07:57:23;;;;;;;;;;;25.10;92.50;;;;;;5053605;28;19909;-75
2022/07/30 07:59:53;;;;;;;;;;;25.10;93.40;;;;;;5053533;28;20393;-74
2022/07/30 08:02:18;;;;;;;;;;;25.60;92.10;;;;;;5052793;28;19944;-75
2022/07/30 08:04:45;;;;;;;;;;;25.90;90.80;;;;;;5051778;28;20017;-74
2022/07/30 08:07:10;;;;;;;;;;;25.30;87.30;;;;;;5053177;28;20131;-74
2022/07/30 08:09:36;;;;;;;;;;;26.00;89.60;;;;;;5053573;28;20175;-74
2022/07/30 08:12:02;;;;;;;;;;;26.60;87.20;;;;;;5052667;28;19913;-74
2022/07/30 08:14:27;;;;;;;;;;;26.90;87.60;;;;;;5052696;28;19909;-74
2022/07/30 08:16:53;;;;;;;;;;;25.90;88.90;;;;;;5049916;28;19910;-74
2022/07/30 08:19:18;;;;;;;;;;;25.20;86.90;;;;;;5053780;28;20023;-74
2022/07/30 08:21:43;;;;;;;;;;;26.50;88.50;;;;;;5055127;28;19909;-73
2022/07/30 08:24:09;;;;;;;;;;;27.40;83.10;;;;;;5052670;28;19909;-73
2022/07/30 08:26:34;;;;;;;;;;;26.50;82.10;;;;;;5053075;28;19954;-74
2022/07/30 08:29:00;;;;;;;;;;;26.40;85.50;;;;;;5052895;28;20285;-74
2022/07/30 08:31:25;;;;;;;;;;;24.90;90.00;;;;;;5050177;28;19909;-74
2022/07/30 08:33:51;;;;;;;;;;;24.80;91.20;;;;;;5052004;28;19909;-74
2022/07/30 08:36:16;;;;;;;;;;;24.60;86.10;;;;;;5052783;28;19920;-75
2022/07/30 08:38:42;;;;;;;;;;;25.90;85.10;;;;;;5050004;28;20374;-74
2022/07/30 08:41:08;;;;;;;;;;;26.90;84.30;;;;;;5052370;28;19916;-75
2022/07/30 08:43:34;;;;;;;;;;;25.40;81.20;;;;;;5052250;28;20319;-74
2022/07/30 08:46:01;;;;;;;;;;;25.10;82.90;;;;;;5052450;28;20301;-74
2022/07/30 08:48:27;;;;;;;;;;;24.20;87.30;;;;;;5051096;28;19913;-74
2022/07/30 08:50:52;;;;;;;;;;;25.20;81.30;;;;;;5058393;28;19915;-74
2022/07/30 08:53:18;;;;;;;;;;;27.00;81.30;;;;;;5051254;28;19917;-74
2022/07/30 08:55:44;;;;;;;;;;;25.60;81.40;;;;;;5052369;28;19909;-74
2022/07/30 08:58:19;;;;;;;;;;;24.70;78.90;;;;;;5052929;28;19909;-74
2022/07/30 09:00:44;;;;;;;;;;;23.70;82.70;;;;;;5052115;28;19955;-73
2022/07/30 09:03:10;;;;;;;;;;;24.50;82.50;;;;;;5051063;28;19909;-74
2022/07/30 09:05:36;;;;;;;;;;;24.70;81.30;;;;;;5052489;28;19916;-74
2022/07/30 09:08:02;;;;;;;;;;;25.50;79.70;;;;;;5051629;28;19964;-75
2022/07/30 09:10:28;;;;;;;;;;;25.50;79.60;;;;;;5052343;28;19909;-74
2022/07/30 09:12:53;;;;;;;;;;;24.60;79.20;;;;;;5051480;28;20487;-75
2022/07/30 09:15:19;;;;;;;;;;;24.90;87.00;;;;;;5051440;28;19986;-75
2022/07/30 09:17:46;;;;;;;;;;;25.60;85.30;;;;;;5051467;28;19909;-73
2022/07/30 09:20:11;;;;;;;;;;;26.20;78.40;;;;;;5054925;28;19909;-74
2022/07/30 09:22:41;;;;;;;;;;;24.60;80.10;;;;;;5051661;28;20384;-75
2022/07/30 09:25:06;;;;;;;;;;;25.50;81.70;;;;;;5045851;28;20355;-75
2022/07/30 09:27:49;;;;;;;;;;;26.20;80.80;;;;;;5051723;28;20221;-75
2022/07/30 09:30:14;;;;;;;;;;;26.90;78.90;;;;;;5047501;28;19978;-74
2022/07/30 09:32:48;;;;;;;;;;;28.60;74.90;;;;;;5051751;28;19917;-74
2022/07/30 09:35:14;;;;;;;;;;;27.80;72.20;;;;;;5051628;28;19909;-75
2022/07/30 09:37:39;;;;;;;;;;;27.60;73.80;;;;;;5051851;28;19909;-74
2022/07/30 09:40:12;;;;;;;;;;;27.50;71.60;;;;;;5052022;28;19909;-74
2022/07/30 09:42:38;;;;;;;;;;;29.30;76.50;;;;;;5051774;28;20306;-73
2022/07/30 09:45:13;;;;;;;;;;;29.10;67.50;;;;;;5051458;28;19920;-75
2022/07/30 09:47:40;;;;;;;;;;;27.80;70.00;;;;;;5052055;28;19909;-74
2022/07/30 09:50:08;;;;;;;;;;;28.70;70.10;;;;;;5054490;28;19909;-74
2022/07/30 09:52:34;;;;;;;;;;;28.10;73.70;;;;;;5053276;28;19982;-75
2022/07/30 09:54:59;;;;;;;;;;;29.00;73.60;;;;;;5050497;28;20289;-73
2022/07/30 09:57:25;;;;;;;;;;;29.40;70.60;;;;;;5051813;28;19913;-74
2022/07/30 09:59:51;;;;;;;;;;;28.40;68.60;;;;;;5051592;28;19939;-74
2022/07/30 10:02:17;;;;;;;;;;;28.50;66.50;;;;;;5052065;28;20008;-75
2022/07/30 10:04:42;;;;;;;;;;;25.70;70.20;;;;;;5051180;28;20365;-75
2022/07/30 10:07:18;;;;;;;;;;;25.80;74.50;;;;;;5051602;28;19916;-74
2022/07/30 10:09:46;;;;;;;;;;;26.20;74.90;;;;;;5051888;28;19977;-75
2022/07/30 10:12:13;;;;;;;;;;;26.00;75.20;;;;;;5051221;28;20327;-75
2022/07/30 10:14:40;;;;;;;;;;;25.80;71.50;;;;;;5050829;28;20397;-75
2022/07/30 10:17:06;;;;;;;;;;;28.10;75.60;;;;;;5051489;28;19908;-74
2022/07/30 10:19:31;;;;;;;;;;;29.70;68.30;;;;;;5051467;28;19909;-74
2022/07/30 10:21:57;;;;;;;;;;;29.20;69.40;;;;;;5051640;28;20401;-74
2022/07/30 10:24:23;;;;;;;;;;;29.30;70.10;;;;;;5051995;28;20290;-74
2022/07/30 10:26:50;;;;;;;;;;;29.00;67.10;;;;;;5051644;28;20011;-74
2022/07/30 10:29:16;;;;;;;;;;;28.10;69.30;;;;;;5053362;28;20424;-74
2022/07/30 10:31:42;;;;;;;;;;;27.30;65.60;;;;;;5054993;28;20611;-74
2022/07/30 10:34:09;;;;;;;;;;;27.70;67.70;;;;;;5051624;28;20000;-74
2022/07/30 10:36:35;;;;;;;;;;;27.70;63.90;;;;;;5055334;28;19956;-75
2022/07/30 10:39:01;;;;;;;;;;;27.90;64.80;;;;;;5055103;28;19939;-74
2022/07/30 10:41:38;;;;;;;;;;;27.80;71.00;;;;;;5054602;28;19954;-74
2022/07/30 10:44:10;;;;;;;;;;;28.90;73.50;;;;;;5054513;28;19909;-73
2022/07/30 10:47:05;;;;;;;;;;;30.40;65.60;;;;;;5053778;28;19971;-74
2022/07/30 10:49:30;;;;;;;;;;;30.10;65.70;;;;;;5049031;28;19912;-74
2022/07/30 10:51:56;;;;;;;;;;;28.00;68.50;;;;;;5054222;28;19913;-75
2022/07/30 10:54:28;;;;;;;;;;;28.20;67.10;;;;;;5053454;28;19913;-74
2022/07/30 10:57:05;;;;;;;;;;;29.20;67.90;;;;;;5053321;28;19948;-75
2022/07/30 10:59:50;;;;;;;;;;;27.60;65.50;;;;;;5054466;28;19913;-74
2022/07/30 11:02:16;;;;;;;;;;;27.60;73.50;;;;;;5054048;28;20255;-74
2022/07/30 11:04:42;;;;;;;;;;;28.80;62.70;;;;;;5054625;28;19909;-74
2022/07/30 11:07:19;;;;;;;;;;;29.10;66.80;;;;;;5051892;28;19915;-74
2022/07/30 11:09:45;;;;;;;;;;;29.30;69.00;;;;;;5054700;28;19912;-74
2022/07/30 11:12:11;;;;;;;;;;;29.90;66.50;;;;;;5053966;28;20491;-73
2022/07/30 11:14:45;;;;;;;;;;;29.50;67.70;;;;;;5050463;28;19909;-74
2022/07/30 11:17:17;;;;;;;;;;;29.90;67.20;;;;;;5054210;28;19959;-73
2022/07/30 11:20:03;;;;;;;;;;;30.00;63.40;;;;;;5047862;28;19952;-74
2022/07/30 11:22:37;;;;;;;;;;;30.20;61.40;;;;;;5053472;28;19909;-75
2022/07/30 11:25:03;;;;;;;;;;;30.30;62.00;;;;;;5053749;28;19908;-74
2022/07/30 11:27:36;;;;;;;;;;;29.30;64.80;;;;;;5054421;28;19915;-74
2022/07/30 11:30:03;;;;;;;;;;;29.90;65.80;;;;;;5054341;28;19915;-74
2022/07/30 11:32:30;;;;;;;;;;;30.50;59.30;;;;;;5051296;28;20346;-75
2022/07/30 11:35:11;;;;;;;;;;;30.00;61.30;;;;;;5053023;28;19960;-75
2022/07/30 11:37:55;;;;;;;;;;;29.90;58.40;;;;;;5053217;28;19909;-74
2022/07/30 11:40:22;;;;;;;;;;;28.60;59.10;;;;;;5049188;28;19912;-74
2022/07/30 11:42:48;;;;;;;;;;;27.50;65.80;;;;;;5053456;28;19986;-74
2022/07/30 11:45:21;;;;;;;;;;;26.80;66.90;;;;;;5053606;28;19909;-74
2022/07/30 11:47:47;;;;;;;;;;;26.00;66.20;;;;;;5054022;28;19913;-74
2022/07/30 11:50:17;;;;;;;;;;;25.90;68.40;;;;;;5053894;28;19909;-74
2022/07/30 11:52:42;;;;;;;;;;;28.00;62.60;;;;;;5052867;28;19919;-75
2022/07/30 11:55:08;;;;;;;;;;;29.40;64.30;;;;;;5053641;28;19909;-74
2022/07/30 11:57:40;;;;;;;;;;;28.60;63.70;;;;;;5053602;28;19909;-74
2022/07/30 12:00:07;;;;;;;;;;;28.50;65.10;;;;;;5053794;28;19913;-74
2022/07/30 12:02:32;;;;;;;;;;;28.50;65.10;;;;;;5052746;28;19916;-73
2022/07/30 12:04:58;;;;;;;;;;;29.00;62.20;;;;;;5049773;28;20212;-74
2022/07/30 12:07:23;;;;;;;;;;;29.00;57.90;;;;;;5052120;28;20282;-74
2022/07/30 12:09:49;;;;;;;;;;;28.70;63.20;;;;;;5053269;28;19913;-74
2022/07/30 12:12:24;;;;;;;;;;;29.30;58.30;;;;;;5053872;28;20000;-75
2022/07/30 12:14:49;;;;;;;;;;;27.80;61.40;;;;;;5053363;28;19908;-75
2022/07/30 12:17:17;;;;;;;;;;;27.10;64.60;;;;;;5057541;28;19920;-77
2022/07/30 12:19:44;;;;;;;;;;;26.50;63.50;;;;;;5071357;28;19913;-74
2022/07/30 12:22:10;;;;;;;;;;;27.10;64.90;;;;;;5051370;28;19955;-75
2022/07/30 12:24:35;;;;;;;;;;;28.30;59.80;;;;;;5052685;28;19909;-75
2022/07/30 12:27:05;;;;;;;;;;;29.10;60.10;;;;;;5052830;28;19912;-75
2022/07/30 12:29:33;;;;;;;;;;;28.40;57.70;;;;;;5053156;28;19932;-75
2022/07/30 12:31:59;;;;;;;;;;;26.90;62.20;;;;;;5052491;28;20382;-74
2022/07/30 12:34:25;;;;;;;;;;;26.80;60.90;;;;;;5052083;28;19947;-75
2022/07/30 12:36:51;;;;;;;;;;;28.10;65.60;;;;;;5053838;28;19916;-74
2022/07/30 12:39:22;;;;;;;;;;;31.60;58.20;;;;;;5052820;28;19940;-75
2022/07/30 12:41:48;;;;;;;;;;;29.20;57.10;;;;;;5051709;28;20453;-75
2022/07/30 12:44:33;;;;;;;;;;;27.70;62.30;;;;;;5051319;28;19984;-73
2022/07/30 12:46:58;;;;;;;;;;;27.40;58.90;;;;;;5052674;28;19909;-74
2022/07/30 12:49:31;;;;;;;;;;;31.20;60.90;;;;;;5053375;28;19909;-75
2022/07/30 12:51:56;;;;;;;;;;;34.60;49.80;;;;;;5053103;28;20015;-74
2022/07/30 12:54:22;;;;;;;;;;;30.70;56.90;;;;;;5053217;28;20427;-74
2022/07/30 12:57:01;;;;;;;;;;;28.30;58.80;;;;;;5052286;28;19916;-74
2022/07/30 12:59:27;;;;;;;;;;;31.90;55.50;;;;;;5052659;28;20270;-74
2022/07/30 13:01:54;;;;;;;;;;;30.00;57.20;;;;;;5051734;28;19915;-74
2022/07/30 13:04:20;;;;;;;;;;;27.10;59.60;;;;;;5051498;28;19909;-74
2022/07/30 13:07:04;;;;;;;;;;;30.10;57.10;;;;;;5053182;28;19974;-74
2022/07/30 13:09:29;;;;;;;;;;;32.60;52.60;;;;;;5046102;28;19916;-74
2022/07/30 13:11:54;;;;;;;;;;;33.40;51.80;;;;;;5051355;28;19920;-74
2022/07/30 13:14:20;;;;;;;;;;;33.90;47.10;;;;;;5051502;28;19913;-74
2022/07/30 13:16:45;;;;;;;;;;;31.10;52.00;;;;;;5045471;28;19913;-74
2022/07/30 13:19:11;;;;;;;;;;;28.60;56.90;;;;;;5051740;28;19909;-74
2022/07/30 13:21:37;;;;;;;;;;;30.30;57.40;;;;;;5049608;28;19913;-74
2022/07/30 13:24:03;;;;;;;;;;;29.80;56.50;;;;;;5050857;28;19915;-74
2022/07/30 13:26:28;;;;;;;;;;;32.10;51.20;;;;;;5051780;28;19909;-74
2022/07/30 13:28:54;;;;;;;;;;;33.80;49.60;;;;;;5051594;28;19932;-74
2022/07/30 13:31:21;;;;;;;;;;;34.60;50.30;;;;;;5051418;28;19958;-74
2022/07/30 13:33:46;;;;;;;;;;;33.50;47.90;;;;;;5047625;28;19917;-74
2022/07/30 13:36:12;;;;;;;;;;;30.80;52.70;;;;;;5051271;28;20274;-73
2022/07/30 13:38:37;;;;;;;;;;;27.80;57.30;;;;;;5051371;28;20011;-74
2022/07/30 13:41:03;;;;;;;;;;;27.40;62.20;;;;;;5051550;28;19948;-74
2022/07/30 13:43:28;;;;;;;;;;;26.60;59.60;;;;;;5050843;28;19908;-74
2022/07/30 13:45:54;;;;;;;;;;;26.40;63.40;;;;;;5051418;28;19909;-74
2022/07/30 13:48:19;;;;;;;;;;;26.50;67.60;;;;;;5051288;28;19955;-74
2022/07/30 13:50:45;;;;;;;;;;;28.70;59.00;;;;;;5048685;28;19918;-74
2022/07/30 13:53:11;;;;;;;;;;;26.90;63.00;;;;;;5057737;28;20034;-74
2022/07/30 13:55:37;;;;;;;;;;;29.60;59.50;;;;;;5051235;28;19913;-75
2022/07/30 13:58:03;;;;;;;;;;;33.00;53.20;;;;;;5051315;28;19909;-75
2022/07/30 14:00:31;;;;;;;;;;;35.40;49.90;;;;;;5051286;28;19915;-76
2022/07/30 14:03:00;;;;;;;;;;;35.90;46.80;;;;;;5050597;28;20370;-75
2022/07/30 14:05:26;;;;;;;;;;;35.70;49.30;;;;;;5055240;28;19981;-75
2022/07/30 14:07:52;;;;;;;;;;;34.60;49.30;;;;;;5056886;28;19912;-75
2022/07/30 14:10:21;;;;;;;;;;;30.00;54.90;;;;;;5052147;28;20369;-75
2022/07/30 14:12:46;;;;;;;;;;;28.40;58.40;;;;;;5054872;28;19916;-75
2022/07/30 14:15:12;;;;;;;;;;;28.20;58.50;;;;;;5055225;28;20263;-75
2022/07/30 14:17:38;;;;;;;;;;;30.90;57.00;;;;;;5055262;28;19967;-76